Time;durP1;ratioP1;P1;durP2;ratioP2;P2;SDS_P1;SDS_P2;PMS_P1;PMS_P2;Temp;Humidity;BMP_temperature;BMP_pressure;BME280_temperature;BME280_humidity;BME280_pressure;Samples;Min_cycle;Max_cycle;Signal;HPM_P1;HPM_P2
2023/06/16 00:02:17;;;;;;;4.57;4.07;;;;;;;26.75;43.17;100482.66;21085554;28;20036;-58
2023/06/16 00:12:21;;;;;;;5.35;4.68;;;;;;;26.78;42.96;100488.44;21086578;28;20040;-57
2023/06/16 00:22:25;;;;;;;4.32;3.83;;;;;;;26.75;43.38;100489.09;21084325;28;20044;-58
2023/06/16 00:32:26;;;;;;;5.60;4.28;;;;;;;26.78;43.10;100508.09;21084335;28;20075;-58
2023/06/16 00:42:27;;;;;;;4.55;4.15;;;;;;;26.78;43.48;100516.53;21083383;28;20467;-59
2023/06/16 00:52:34;;;;;;;4.45;3.88;;;;;;;26.68;43.02;100488.78;21082421;28;20036;-55
2023/06/16 01:02:36;;;;;;;4.35;3.95;;;;;;;26.78;42.93;100516.53;21081241;28;20117;-62
2023/06/16 01:13:00;;;;;;;4.20;3.80;;;;;;;26.75;43.02;100528.41;21080340;28;20024;-57
2023/06/16 01:23:25;;;;;;;4.30;3.90;;;;;;;26.81;43.10;100537.50;21080412;28;20449;-57
2023/06/16 01:33:32;;;;;;;4.97;4.00;;;;;;;26.73;43.24;100536.34;21079243;28;20101;-59
2023/06/16 01:43:34;;;;;;;4.27;3.87;;;;;;;26.73;43.11;100538.31;21078630;28;20028;-58
2023/06/16 01:53:35;;;;;;;4.90;3.88;;;;;;;26.76;43.34;100555.34;21076897;28;20369;-58
2023/06/16 02:03:52;;;;;;;4.80;3.70;;;;;;;26.80;42.78;100564.75;21076970;28;20035;-58
2023/06/16 02:13:54;;;;;;;4.97;3.73;;;;;;;26.83;42.73;100574.47;21077165;28;20047;-58
2023/06/16 02:23:55;;;;;;;4.10;3.70;;;;;;;26.82;42.96;100587.69;21076263;28;20109;-58
2023/06/16 02:33:57;;;;;;;4.13;3.72;;;;;;;26.66;42.94;100569.66;21075790;28;20040;-58
2023/06/16 02:43:58;;;;;;;4.05;3.65;;;;;;;26.83;43.17;100597.75;21076048;28;20101;-57
2023/06/16 02:54:00;;;;;;;3.83;3.53;;;;;;;26.72;42.94;100593.63;21074891;28;20471;-56
2023/06/16 03:04:03;;;;;;;4.15;3.60;;;;;;;26.80;42.76;100608.81;21075488;28;20411;-55
2023/06/16 03:14:04;;;;;;;4.40;3.67;;;;;;;26.86;43.06;100613.13;21075385;28;20544;-56
2023/06/16 03:24:05;;;;;;;3.40;3.10;;;;;;;26.82;42.73;100615.75;21074520;28;20552;-59
2023/06/16 03:34:07;;;;;;;3.97;3.60;;;;;;;26.84;42.87;100621.03;21082872;28;20040;-58
2023/06/16 03:44:08;;;;;;;3.45;3.15;;;;;;;26.80;42.91;100643.34;21089009;28;20040;-57
2023/06/16 03:54:11;;;;;;;4.05;3.30;;;;;;;26.84;42.61;100647.13;21088002;28;20044;-57
2023/06/16 04:04:13;;;;;;;3.65;3.28;;;;;;;26.84;42.65;100661.16;21087274;28;20124;-58
2023/06/16 04:14:14;;;;;;;3.05;2.72;;;;;;;26.84;42.54;100646.31;21086292;28;20048;-58
2023/06/16 04:24:16;;;;;;;3.53;3.22;;;;;;;26.85;42.89;100633.94;21085263;28;20040;-57
2023/06/16 04:34:18;;;;;;;3.65;3.35;;;;;;;26.73;42.75;100592.47;21084695;28;20101;-58
2023/06/16 04:44:19;;;;;;;3.67;2.80;;;;;;;26.86;42.45;100608.34;21084016;28;20040;-57
2023/06/16 04:54:21;;;;;;;3.67;3.10;;;;;;;26.87;42.78;100620.41;21083224;28;20120;-57
2023/06/16 05:04:22;;;;;;;3.55;3.22;;;;;;;26.85;42.78;100617.94;21082272;28;20044;-58
2023/06/16 05:14:23;;;;;;;3.22;2.92;;;;;;;26.85;42.56;100634.78;21081489;28;20040;-58
2023/06/16 05:24:27;;;;;;;3.38;3.08;;;;;;;26.85;42.50;100629.16;21080291;28;20048;-57
2023/06/16 05:34:29;;;;;;;3.72;3.15;;;;;;;26.73;42.32;100614.94;21079825;28;20122;-56
2023/06/16 05:44:30;;;;;;;3.40;3.10;;;;;;;26.85;42.24;100631.97;21079317;28;20044;-57
2023/06/16 05:54:32;;;;;;;3.58;3.28;;;;;;;26.86;42.23;100629.97;21078593;28;20036;-58
2023/06/16 06:04:34;;;;;;;3.80;3.33;;;;;;;26.85;42.35;100623.53;21078334;28;20039;-58
2023/06/16 06:14:35;;;;;;;3.50;3.20;;;;;;;26.85;42.28;100629.16;21077595;28;20037;-56
2023/06/16 06:24:37;;;;;;;3.53;3.22;;;;;;;26.86;42.17;100602.72;21076868;28;20047;-57
2023/06/16 06:34:38;;;;;;;3.90;3.10;;;;;;;26.86;42.21;100608.34;21076346;28;20028;-57
2023/06/16 06:44:40;;;;;;;3.20;2.90;;;;;;;26.84;41.94;100605.03;21075973;28;20092;-56
2023/06/16 06:54:41;;;;;;;3.35;3.10;;;;;;;26.85;41.90;100595.47;21076055;28;20059;-57
2023/06/16 07:04:45;;;;;;;3.78;3.47;;;;;;;26.85;42.03;100600.25;21077009;28;20062;-57
2023/06/16 07:14:49;;;;;;;3.58;3.25;;;;;;;26.83;42.02;100608.16;21090911;28;20040;-56
2023/06/16 07:24:51;;;;;;;3.75;3.45;;;;;;;26.79;41.94;100608.00;21088278;28;20047;-58
2023/06/16 07:34:52;;;;;;;4.05;3.65;;;;;;;26.84;42.04;100602.22;21089937;28;20040;-58
2023/06/16 07:44:53;;;;;;;3.65;3.35;;;;;;;26.76;42.05;100597.44;21088869;28;20074;-58
2023/06/16 07:54:55;;;;;;;3.42;3.13;;;;;;;26.84;41.83;100599.41;21087724;28;20032;-55
2023/06/16 08:04:56;;;;;;;3.63;3.33;;;;;;;26.83;41.92;100585.72;21087948;28;20036;-57
2023/06/16 08:14:58;;;;;;;3.70;3.38;;;;;;;26.70;41.75;100576.28;21084262;28;20102;-57
2023/06/16 08:24:59;;;;;;;3.30;3.00;;;;;;;26.79;41.76;100588.34;21085236;28;20052;-56
2023/06/16 08:35:02;;;;;;;3.65;3.33;;;;;;;26.71;41.91;100574.31;21084471;28;20052;-59
2023/06/16 08:45:08;;;;;;;3.72;3.42;;;;;;;26.81;42.00;100588.84;21083670;28;20070;-57
2023/06/16 08:55:13;;;;;;;4.05;3.65;;;;;;;26.82;41.75;100590.50;21082837;28;20102;-58
2023/06/16 09:05:16;;;;;;;4.10;3.70;;;;;;;26.81;41.88;100588.84;21081825;28;20093;-56
2023/06/16 09:15:19;;;;;;;4.40;3.60;;;;;;;26.82;42.05;100589.69;21081819;28;20052;-58
2023/06/16 09:25:23;;;;;;;4.03;3.63;;;;;;;26.81;42.02;100591.66;21080321;28;20047;-58
2023/06/16 09:35:27;;;;;;;3.90;3.60;;;;;;;26.80;41.67;100594.78;21079367;28;20391;-58
2023/06/16 09:45:32;;;;;;;3.67;3.30;;;;;;;26.80;41.63;100569.50;21079074;28;20024;-57
2023/06/16 09:55:40;;;;;;;3.85;3.45;;;;;;;26.80;41.86;100567.56;21078880;28;20501;-58
2023/06/16 10:05:46;;;;;;;4.20;3.70;;;;;;;26.80;41.89;100567.56;21077714;28;20048;-58
2023/06/16 10:15:50;;;;;;;3.60;3.05;;;;;;;26.79;41.78;100553.84;21077146;28;20036;-57
2023/06/16 10:25:52;;;;;;;3.50;3.17;;;;;;;26.79;41.54;100557.47;21076088;28;20576;-57
2023/06/16 10:36:00;;;;;;;4.15;3.80;;;;;;;26.71;41.54;100549.88;21076984;28;20048;-56
2023/06/16 10:46:15;;;;;;;4.45;4.00;;;;;;;26.75;41.72;100583.72;21090183;28;20475;-54
2023/06/16 10:56:16;;;;;;;3.72;3.42;;;;;;;26.79;41.82;100579.91;21092619;28;20032;-59
2023/06/16 11:06:18;;;;;;;4.40;3.95;;;;;;;26.75;41.81;100556.47;21091660;28;20047;-57
2023/06/16 11:16:19;;;;;;;4.47;3.95;;;;;;;26.79;41.86;100556.66;21091089;28;20050;-56
2023/06/16 11:26:21;;;;;;;4.28;3.88;;;;;;;26.78;41.64;100557.81;21089934;28;20048;-55
2023/06/16 11:36:23;;;;;;;4.07;3.75;;;;;;;26.76;41.52;100569.38;21089445;28;20101;-54
2023/06/16 11:46:32;;;;;;;4.30;3.90;;;;;;;26.77;41.71;100570.19;21088476;28;20047;-55
2023/06/16 11:56:39;;;;;;;4.55;4.07;;;;;;;26.79;41.63;100588.34;21086139;28;20050;-58
2023/06/16 12:06:40;;;;;;;4.28;3.80;;;;;;;26.80;41.69;100575.97;21086332;28;20048;-58
2023/06/16 12:16:41;;;;;;;3.65;3.35;;;;;;;26.79;41.63;100562.25;21085960;28;20047;-57
2023/06/16 12:26:46;;;;;;;3.72;3.42;;;;;;;26.80;41.72;100595.63;21083900;28;20051;-56
2023/06/16 12:36:47;;;;;;;3.67;3.38;;;;;;;26.79;41.63;100576.28;21083620;28;20445;-55
2023/06/16 12:46:49;;;;;;;4.20;3.80;;;;;;;26.70;41.66;100558.63;21083170;28;20047;-57
2023/06/16 12:56:50;;;;;;;4.10;3.70;;;;;;;26.81;41.71;100560.78;21082526;28;20036;-57
2023/06/16 13:06:52;;;;;;;3.92;3.53;;;;;;;26.81;41.71;100559.97;21080160;28;20051;-59
2023/06/16 13:16:53;;;;;;;3.65;3.20;;;;;;;26.81;41.84;100559.97;21080169;28;20036;-59
2023/06/16 13:26:55;;;;;;;4.93;3.60;;;;;;;26.82;41.85;100551.19;21079060;28;20089;-58
2023/06/16 13:36:57;;;;;;;3.80;3.50;;;;;;;26.83;41.66;100527.56;21079176;28;20035;-58
2023/06/16 13:46:58;;;;;;;4.32;3.85;;;;;;;26.83;41.83;100521.97;21078826;28;20078;-58
2023/06/16 13:56:59;;;;;;;3.42;3.00;;;;;;;26.83;41.83;100499.50;21078405;28;20066;-56
2023/06/16 14:07:01;;;;;;;3.88;3.55;;;;;;;26.84;41.69;100508.75;21076938;28;20448;-55
2023/06/16 14:17:02;;;;;;;4.85;3.40;;;;;;;26.84;41.86;100506.75;21076764;28;20032;-58
2023/06/16 14:27:04;;;;;;;4.15;3.75;;;;;;;26.73;41.66;100493.41;21075694;28;20105;-59
2023/06/16 14:37:10;;;;;;;3.90;3.50;;;;;;;26.83;41.58;100569.69;21075648;28;20051;-58
2023/06/16 14:47:11;;;;;;;3.72;3.42;;;;;;;26.83;41.83;100505.13;21074389;28;20052;-59
2023/06/16 14:57:13;;;;;;;4.20;3.80;;;;;;;26.82;41.86;100483.00;21074715;28;20529;-58
2023/06/16 15:07:20;;;;;;;5.38;3.72;;;;;;;26.82;41.74;100455.75;21074307;28;20044;-58
2023/06/16 15:17:22;;;;;;;3.87;3.57;;;;;;;26.81;41.77;100436.44;21074743;28;20040;-58
2023/06/16 15:27:23;;;;;;;3.95;3.47;;;;;;;26.83;41.90;100442.53;21078016;28;20297;-60
2023/06/16 15:37:24;;;;;;;3.78;3.38;;;;;;;26.82;41.63;100429.66;21088948;28;20541;-59
2023/06/16 15:47:26;;;;;;;4.30;3.90;;;;;;;26.81;41.93;100350.25;21088112;28;20408;-57
2023/06/16 15:57:27;;;;;;;4.05;3.53;;;;;;;26.80;41.61;100328.09;21087097;28;20020;-58
2023/06/16 16:07:29;;;;;;;4.00;3.60;;;;;;;26.80;41.82;100362.63;21085895;28;20051;-59
2023/06/16 16:17:30;;;;;;;5.30;4.18;;;;;;;26.79;42.00;100490.09;21085192;28;20122;-57
2023/06/16 16:27:32;;;;;;;4.80;4.00;;;;;;;26.81;42.09;100531.88;21085150;28;20044;-58
2023/06/16 16:37:33;;;;;;;7.47;4.35;;;;;;;26.76;42.01;100445.88;21083965;28;20016;-58
2023/06/16 16:47:34;;;;;;;5.45;4.20;;;;;;;26.79;41.97;100338.50;21083129;28;20077;-58
2023/06/16 16:57:36;;;;;;;4.55;4.13;;;;;;;26.79;42.36;100355.34;21081361;28;20048;-58
2023/06/16 17:07:37;;;;;;;4.10;3.67;;;;;;;26.78;41.89;100409.84;21081729;28;20047;-57
2023/06/16 17:17:38;;;;;;;4.85;4.28;;;;;;;26.79;42.06;100405.88;21080198;28;20040;-56
2023/06/16 17:27:40;;;;;;;6.03;4.47;;;;;;;26.78;42.22;100387.41;21079699;28;20048;-59
2023/06/16 17:37:45;;;;;;;5.28;4.20;;;;;;;26.79;42.40;100355.34;21079711;28;20040;-58
2023/06/16 17:47:46;;;;;;;4.47;3.95;;;;;;;26.70;42.39;100346.13;21077215;28;20052;-57
2023/06/16 17:57:48;;;;;;;4.72;4.30;;;;;;;26.62;42.46;100347.00;21077449;28;20044;-58
2023/06/16 18:07:50;;;;;;;4.93;3.88;;;;;;;26.66;42.49;100384.44;21076864;28;20441;-58
2023/06/16 18:17:51;;;;;;;5.20;4.07;;;;;;;26.80;42.50;100368.25;21076785;28;20383;-59
2023/06/16 18:27:52;;;;;;;5.05;4.03;;;;;;;26.81;42.16;100336.22;21076230;28;20052;-56
2023/06/16 18:37:53;;;;;;;6.63;4.38;;;;;;;26.80;42.55;100345.78;21075928;28;20027;-57
2023/06/16 18:47:58;;;;;;;5.07;4.40;;;;;;;26.75;42.39;100320.69;21075884;28;20036;-57
2023/06/16 18:57:59;;;;;;;4.75;4.00;;;;;;;26.82;42.44;100323.81;21074176;28;20032;-57
2023/06/16 19:08:00;;;;;;;3.92;3.55;;;;;;;26.84;42.46;100315.03;21091055;28;20044;-57
2023/06/16 19:18:02;;;;;;;4.90;4.03;;;;;;;26.86;42.29;100304.31;21090591;28;20081;-58
2023/06/16 19:28:03;;;;;;;5.20;3.70;;;;;;;26.85;42.43;100297.88;21092479;28;20070;-58
2023/06/16 19:38:05;;;;;;;4.90;4.40;;;;;;;26.85;42.51;100269.81;21093398;28;20044;-58
2023/06/16 19:48:06;;;;;;;4.47;3.97;;;;;;;26.83;42.37;100255.28;21091336;28;20069;-59
2023/06/16 19:58:07;;;;;;;4.32;3.92;;;;;;;26.89;42.51;100241.03;21087540;28;20361;-58
2023/06/16 20:08:19;;;;;;;5.20;4.05;;;;;;;26.90;42.57;100239.91;21086965;28;20040;-56
2023/06/16 20:18:20;;;;;;;4.38;3.90;;;;;;;26.91;42.29;100233.94;21085145;28;20047;-57
2023/06/16 20:28:22;;;;;;;4.75;3.75;;;;;;;26.92;42.43;100223.53;21085263;28;20052;-58
2023/06/16 20:38:23;;;;;;;3.95;3.55;;;;;;;26.91;42.21;100233.13;21084929;28;20533;-57
2023/06/16 20:48:25;;;;;;;4.88;4.25;;;;;;;26.91;42.54;100244.34;21083604;28;20040;-57
2023/06/16 20:58:27;;;;;;;4.70;4.25;;;;;;;26.92;42.64;100252.44;21082937;28;20044;-56
2023/06/16 21:08:32;;;;;;;4.03;3.50;;;;;;;26.93;42.29;100242.00;21082154;28;20044;-57
2023/06/16 21:18:35;;;;;;;5.05;4.00;;;;;;;26.93;42.32;100258.84;21081218;28;20039;-58
2023/06/16 21:28:39;;;;;;;4.20;3.80;;;;;;;26.94;42.37;100277.34;21079847;28;20040;-57
2023/06/16 21:38:41;;;;;;;5.07;3.45;;;;;;;26.94;42.45;100291.38;21080277;28;20122;-59
2023/06/16 21:48:43;;;;;;;3.80;3.45;;;;;;;26.94;42.18;100300.66;21078901;28;20103;-56
2023/06/16 21:58:44;;;;;;;3.72;3.30;;;;;;;26.95;42.37;100284.63;21079768;28;20024;-58
2023/06/16 22:08:45;;;;;;;4.55;3.63;;;;;;;26.94;42.46;100295.03;21079366;28;20474;-57
2023/06/16 22:18:50;;;;;;;3.53;3.22;;;;;;;26.94;42.32;100266.97;21077755;28;20028;-57
2023/06/16 22:28:51;;;;;;;3.55;3.25;;;;;;;26.74;42.49;100251.69;21077271;28;20096;-57
2023/06/16 22:38:52;;;;;;;3.53;3.22;;;;;;;26.94;42.37;100288.56;21076801;28;20036;-58
2023/06/16 22:48:55;;;;;;;4.03;3.63;;;;;;;26.94;42.44;100327.88;21075469;28;20052;-58
2023/06/16 22:59:02;;;;;;;4.30;3.90;;;;;;;26.89;42.40;100353.34;21075252;28;20480;-58
2023/06/16 23:09:04;;;;;;;3.35;3.03;;;;;;;26.85;42.60;100339.19;21074798;28;20201;-57
2023/06/16 23:19:06;;;;;;;4.28;3.70;;;;;;;26.93;42.46;100332.69;21074398;28;20032;-58
2023/06/16 23:29:07;;;;;;;4.15;3.10;;;;;;;26.93;42.66;100312.22;21073409;28;20044;-57
2023/06/16 23:39:10;;;;;;;4.15;3.63;;;;;;;26.94;42.27;100288.56;21073137;28;20048;-57
2023/06/16 23:49:14;;;;;;;4.13;3.60;;;;;;;26.94;42.49;100282.97;21078883;28;20054;-58
2023/06/16 23:59:15;;;;;;;3.97;3.65;;;;;;;26.94;42.33;100294.19;21087655;28;20043;-58
